sensor_id;sensor_type;location;lat;lon;timestamp;P1;durP1;ratioP1;P2;durP2;ratioP2
5951;SDS011;3001;42.622;23.194;2022-09-09T00:00:47;10.43;;;9.73;;
5951;SDS011;3001;42.622;23.194;2022-09-09T00:03:23;11.13;;;10.10;;
5951;SDS011;3001;42.622;23.194;2022-09-09T00:05:55;11.43;;;10.60;;
5951;SDS011;3001;42.622;23.194;2022-09-09T00:08:32;10.93;;;10.17;;
5951;SDS011;3001;42.622;23.194;2022-09-09T00:11:09;10.27;;;9.57;;
5951;SDS011;3001;42.622;23.194;2022-09-09T00:13:40;11.23;;;10.43;;
5951;SDS011;3001;42.622;23.194;2022-09-09T00:16:15;11.07;;;10.17;;
5951;SDS011;3001;42.622;23.194;2022-09-09T00:18:51;10.20;;;9.60;;
5951;SDS011;3001;42.622;23.194;2022-09-09T00:21:25;10.50;;;9.70;;
5951;SDS011;3001;42.622;23.194;2022-09-09T00:23:59;10.93;;;10.20;;
5951;SDS011;3001;42.622;23.194;2022-09-09T00:26:30;10.97;;;10.17;;
5951;SDS011;3001;42.622;23.194;2022-09-09T00:29:04;10.40;;;9.77;;
5951;SDS011;3001;42.622;23.194;2022-09-09T00:31:36;11.70;;;10.60;;
5951;SDS011;3001;42.622;23.194;2022-09-09T00:34:08;10.53;;;9.63;;
5951;SDS011;3001;42.622;23.194;2022-09-09T00:36:39;9.97;;;9.27;;
5951;SDS011;3001;42.622;23.194;2022-09-09T00:39:08;10.70;;;9.83;;
5951;SDS011;3001;42.622;23.194;2022-09-09T00:41:43;9.27;;;8.67;;
5951;SDS011;3001;42.622;23.194;2022-09-09T00:44:20;10.60;;;9.90;;
5951;SDS011;3001;42.622;23.194;2022-09-09T00:46:57;10.50;;;9.70;;
5951;SDS011;3001;42.622;23.194;2022-09-09T00:49:36;9.47;;;8.97;;
5951;SDS011;3001;42.622;23.194;2022-09-09T00:52:15;10.13;;;9.33;;
5951;SDS011;3001;42.622;23.194;2022-09-09T00:54:52;10.77;;;10.07;;
5951;SDS011;3001;42.622;23.194;2022-09-09T00:57:27;10.60;;;9.73;;
5951;SDS011;3001;42.622;23.194;2022-09-09T00:59:57;10.60;;;9.90;;
5951;SDS011;3001;42.622;23.194;2022-09-09T01:02:31;12.03;;;10.93;;
5951;SDS011;3001;42.622;23.194;2022-09-09T01:05:10;11.07;;;10.00;;
5951;SDS011;3001;42.622;23.194;2022-09-09T01:07:44;10.93;;;10.20;;
5951;SDS011;3001;42.622;23.194;2022-09-09T01:10:16;10.80;;;10.07;;
5951;SDS011;3001;42.622;23.194;2022-09-09T01:12:51;11.17;;;10.23;;
5951;SDS011;3001;42.622;23.194;2022-09-09T01:15:19;9.87;;;9.27;;
5951;SDS011;3001;42.622;23.194;2022-09-09T01:17:51;11.50;;;10.43;;
5951;SDS011;3001;42.622;23.194;2022-09-09T01:20:25;10.13;;;9.53;;
5951;SDS011;3001;42.622;23.194;2022-09-09T01:23:03;11.70;;;10.97;;
5951;SDS011;3001;42.622;23.194;2022-09-09T01:28:47;10.17;;;9.50;;
5951;SDS011;3001;42.622;23.194;2022-09-09T01:31:18;10.47;;;9.77;;
5951;SDS011;3001;42.622;23.194;2022-09-09T01:33:47;10.33;;;9.53;;
5951;SDS011;3001;42.622;23.194;2022-09-09T01:36:16;10.37;;;9.63;;
5951;SDS011;3001;42.622;23.194;2022-09-09T01:38:49;10.60;;;9.90;;
5951;SDS011;3001;42.622;23.194;2022-09-09T01:41:16;10.47;;;9.77;;
5951;SDS011;3001;42.622;23.194;2022-09-09T01:43:43;10.50;;;9.70;;
5951;SDS011;3001;42.622;23.194;2022-09-09T01:46:11;9.10;;;8.30;;
5951;SDS011;3001;42.622;23.194;2022-09-09T01:48:39;9.60;;;8.57;;
5951;SDS011;3001;42.622;23.194;2022-09-09T01:51:07;9.83;;;9.13;;
5951;SDS011;3001;42.622;23.194;2022-09-09T01:53:35;10.00;;;9.20;;
5951;SDS011;3001;42.622;23.194;2022-09-09T01:56:05;10.33;;;9.60;;
5951;SDS011;3001;42.622;23.194;2022-09-09T01:58:42;10.13;;;9.33;;
5951;SDS011;3001;42.622;23.194;2022-09-09T02:01:21;9.57;;;9.07;;
5951;SDS011;3001;42.622;23.194;2022-09-09T02:03:55;10.37;;;9.67;;
5951;SDS011;3001;42.622;23.194;2022-09-09T02:06:25;10.77;;;9.93;;
5951;SDS011;3001;42.622;23.194;2022-09-09T02:08:57;10.77;;;9.97;;
5951;SDS011;3001;42.622;23.194;2022-09-09T02:11:26;10.17;;;9.50;;
5951;SDS011;3001;42.622;23.194;2022-09-09T02:13:56;11.87;;;10.33;;
5951;SDS011;3001;42.622;23.194;2022-09-09T02:16:28;11.50;;;10.43;;
5951;SDS011;3001;42.622;23.194;2022-09-09T02:19:01;10.70;;;9.90;;
5951;SDS011;3001;42.622;23.194;2022-09-09T02:21:33;11.33;;;10.43;;
5951;SDS011;3001;42.622;23.194;2022-09-09T02:24:02;10.87;;;9.87;;
5951;SDS011;3001;42.622;23.194;2022-09-09T02:26:34;10.40;;;9.70;;
5951;SDS011;3001;42.622;23.194;2022-09-09T02:29:06;10.53;;;9.87;;
5951;SDS011;3001;42.622;23.194;2022-09-09T02:31:38;10.43;;;9.63;;
5951;SDS011;3001;42.622;23.194;2022-09-09T02:34:07;9.77;;;9.07;;
5951;SDS011;3001;42.622;23.194;2022-09-09T02:36:37;10.27;;;9.37;;
5951;SDS011;3001;42.622;23.194;2022-09-09T02:39:07;10.73;;;9.67;;
5951;SDS011;3001;42.622;23.194;2022-09-09T02:41:36;10.30;;;9.60;;
5951;SDS011;3001;42.622;23.194;2022-09-09T02:44:05;10.43;;;9.57;;
5951;SDS011;3001;42.622;23.194;2022-09-09T02:46:51;10.23;;;9.50;;
5951;SDS011;3001;42.622;23.194;2022-09-09T02:49:45;10.43;;;9.63;;
5951;SDS011;3001;42.622;23.194;2022-09-09T02:52:32;10.33;;;9.73;;
5951;SDS011;3001;42.622;23.194;2022-09-09T02:55:08;10.53;;;9.93;;
5951;SDS011;3001;42.622;23.194;2022-09-09T02:57:42;11.20;;;10.47;;
5951;SDS011;3001;42.622;23.194;2022-09-09T03:00:13;11.07;;;10.27;;
5951;SDS011;3001;42.622;23.194;2022-09-09T03:02:42;11.47;;;10.37;;
5951;SDS011;3001;42.622;23.194;2022-09-09T03:05:10;10.03;;;9.20;;
5951;SDS011;3001;42.622;23.194;2022-09-09T03:07:38;9.70;;;9.00;;
5951;SDS011;3001;42.622;23.194;2022-09-09T03:10:05;10.27;;;9.50;;
5951;SDS011;3001;42.622;23.194;2022-09-09T03:12:33;10.63;;;9.87;;
5951;SDS011;3001;42.622;23.194;2022-09-09T03:14:59;11.33;;;10.27;;
5951;SDS011;3001;42.622;23.194;2022-09-09T03:17:26;11.43;;;10.53;;
5951;SDS011;3001;42.622;23.194;2022-09-09T03:19:54;11.40;;;10.30;;
5951;SDS011;3001;42.622;23.194;2022-09-09T03:22:22;10.90;;;9.60;;
5951;SDS011;3001;42.622;23.194;2022-09-09T03:24:50;10.13;;;9.30;;
5951;SDS011;3001;42.622;23.194;2022-09-09T03:27:17;11.33;;;10.23;;
5951;SDS011;3001;42.622;23.194;2022-09-09T03:29:44;10.67;;;9.67;;
5951;SDS011;3001;42.622;23.194;2022-09-09T03:32:11;9.97;;;9.23;;
5951;SDS011;3001;42.622;23.194;2022-09-09T03:34:38;11.20;;;10.03;;
5951;SDS011;3001;42.622;23.194;2022-09-09T03:37:06;11.07;;;10.20;;
5951;SDS011;3001;42.622;23.194;2022-09-09T03:39:33;10.80;;;10.10;;
5951;SDS011;3001;42.622;23.194;2022-09-09T03:42:00;11.33;;;10.23;;
5951;SDS011;3001;42.622;23.194;2022-09-09T03:44:29;11.57;;;10.67;;
5951;SDS011;3001;42.622;23.194;2022-09-09T03:46:55;11.50;;;10.37;;
5951;SDS011;3001;42.622;23.194;2022-09-09T03:49:24;13.10;;;10.80;;
5951;SDS011;3001;42.622;23.194;2022-09-09T03:51:53;12.53;;;10.20;;
5951;SDS011;3001;42.622;23.194;2022-09-09T03:54:22;11.03;;;10.33;;
5951;SDS011;3001;42.622;23.194;2022-09-09T03:56:50;10.27;;;9.40;;
5951;SDS011;3001;42.622;23.194;2022-09-09T03:59:16;11.20;;;10.30;;
5951;SDS011;3001;42.622;23.194;2022-09-09T04:01:43;10.37;;;9.60;;
5951;SDS011;3001;42.622;23.194;2022-09-09T04:04:10;11.03;;;10.13;;
5951;SDS011;3001;42.622;23.194;2022-09-09T04:06:37;10.77;;;9.97;;
5951;SDS011;3001;42.622;23.194;2022-09-09T04:09:04;12.57;;;9.80;;
5951;SDS011;3001;42.622;23.194;2022-09-09T04:11:32;14.40;;;9.93;;
5951;SDS011;3001;42.622;23.194;2022-09-09T04:13:59;10.03;;;9.40;;
5951;SDS011;3001;42.622;23.194;2022-09-09T04:16:26;12.83;;;9.20;;
5951;SDS011;3001;42.622;23.194;2022-09-09T04:18:52;10.60;;;9.63;;
5951;SDS011;3001;42.622;23.194;2022-09-09T04:21:19;11.10;;;10.00;;
5951;SDS011;3001;42.622;23.194;2022-09-09T04:23:46;11.10;;;10.20;;
5951;SDS011;3001;42.622;23.194;2022-09-09T04:26:13;11.03;;;10.23;;
5951;SDS011;3001;42.622;23.194;2022-09-09T04:28:41;10.70;;;9.90;;
5951;SDS011;3001;42.622;23.194;2022-09-09T04:31:08;11.67;;;10.77;;
5951;SDS011;3001;42.622;23.194;2022-09-09T04:33:37;11.47;;;10.50;;
5951;SDS011;3001;42.622;23.194;2022-09-09T04:36:04;11.30;;;10.20;;
5951;SDS011;3001;42.622;23.194;2022-09-09T04:38:31;11.67;;;10.77;;
5951;SDS011;3001;42.622;23.194;2022-09-09T04:40:58;11.23;;;10.33;;
5951;SDS011;3001;42.622;23.194;2022-09-09T04:43:25;11.67;;;10.80;;
5951;SDS011;3001;42.622;23.194;2022-09-09T04:45:54;10.97;;;10.07;;
5951;SDS011;3001;42.622;23.194;2022-09-09T04:48:21;10.67;;;9.87;;
5951;SDS011;3001;42.622;23.194;2022-09-09T04:50:54;11.13;;;10.03;;
5951;SDS011;3001;42.622;23.194;2022-09-09T04:53:22;10.13;;;9.23;;
5951;SDS011;3001;42.622;23.194;2022-09-09T04:55:50;11.03;;;10.23;;
5951;SDS011;3001;42.622;23.194;2022-09-09T04:58:17;11.83;;;10.47;;
5951;SDS011;3001;42.622;23.194;2022-09-09T05:00:44;11.07;;;10.37;;
5951;SDS011;3001;42.622;23.194;2022-09-09T05:03:12;11.23;;;10.13;;
5951;SDS011;3001;42.622;23.194;2022-09-09T05:05:39;10.67;;;9.90;;
5951;SDS011;3001;42.622;23.194;2022-09-09T05:08:07;10.73;;;9.83;;
5951;SDS011;3001;42.622;23.194;2022-09-09T05:10:36;12.23;;;11.17;;
5951;SDS011;3001;42.622;23.194;2022-09-09T05:13:04;12.07;;;10.80;;
5951;SDS011;3001;42.622;23.194;2022-09-09T05:15:31;11.70;;;10.67;;
5951;SDS011;3001;42.622;23.194;2022-09-09T05:17:58;11.37;;;10.37;;
5951;SDS011;3001;42.622;23.194;2022-09-09T05:20:27;11.10;;;10.20;;
5951;SDS011;3001;42.622;23.194;2022-09-09T05:22:54;10.97;;;10.17;;
5951;SDS011;3001;42.622;23.194;2022-09-09T05:25:21;10.40;;;9.80;;
5951;SDS011;3001;42.622;23.194;2022-09-09T05:27:49;11.63;;;10.53;;
5951;SDS011;3001;42.622;23.194;2022-09-09T05:30:16;11.40;;;10.50;;
5951;SDS011;3001;42.622;23.194;2022-09-09T05:32:44;11.30;;;10.50;;
5951;SDS011;3001;42.622;23.194;2022-09-09T05:35:11;10.80;;;9.93;;
5951;SDS011;3001;42.622;23.194;2022-09-09T05:37:39;11.50;;;10.50;;
5951;SDS011;3001;42.622;23.194;2022-09-09T05:40:06;11.43;;;10.53;;
5951;SDS011;3001;42.622;23.194;2022-09-09T05:42:34;11.47;;;10.70;;
5951;SDS011;3001;42.622;23.194;2022-09-09T05:45:01;15.33;;;9.77;;
5951;SDS011;3001;42.622;23.194;2022-09-09T05:47:27;10.60;;;9.90;;
5951;SDS011;3001;42.622;23.194;2022-09-09T05:49:54;10.90;;;10.10;;
5951;SDS011;3001;42.622;23.194;2022-09-09T05:52:21;10.93;;;9.97;;
5951;SDS011;3001;42.622;23.194;2022-09-09T05:54:50;12.30;;;10.73;;
5951;SDS011;3001;42.622;23.194;2022-09-09T05:57:16;11.20;;;10.50;;
5951;SDS011;3001;42.622;23.194;2022-09-09T05:59:44;12.30;;;10.87;;
5951;SDS011;3001;42.622;23.194;2022-09-09T06:02:11;10.40;;;9.70;;
5951;SDS011;3001;42.622;23.194;2022-09-09T06:04:39;10.33;;;9.53;;
5951;SDS011;3001;42.622;23.194;2022-09-09T06:07:06;11.57;;;10.67;;
5951;SDS011;3001;42.622;23.194;2022-09-09T06:09:33;11.17;;;10.27;;
5951;SDS011;3001;42.622;23.194;2022-09-09T06:12:02;11.90;;;10.70;;
5951;SDS011;3001;42.622;23.194;2022-09-09T06:14:29;13.07;;;10.53;;
5951;SDS011;3001;42.622;23.194;2022-09-09T06:16:55;11.63;;;10.63;;
5951;SDS011;3001;42.622;23.194;2022-09-09T06:19:22;12.90;;;11.80;;
5951;SDS011;3001;42.622;23.194;2022-09-09T06:21:52;13.17;;;11.13;;
5951;SDS011;3001;42.622;23.194;2022-09-09T06:24:18;12.83;;;11.83;;
5951;SDS011;3001;42.622;23.194;2022-09-09T06:26:45;12.77;;;11.67;;
5951;SDS011;3001;42.622;23.194;2022-09-09T06:29:13;13.93;;;11.63;;
5951;SDS011;3001;42.622;23.194;2022-09-09T06:31:40;12.83;;;11.57;;
5951;SDS011;3001;42.622;23.194;2022-09-09T06:34:07;11.33;;;10.63;;
5951;SDS011;3001;42.622;23.194;2022-09-09T06:36:35;13.67;;;10.70;;
5951;SDS011;3001;42.622;23.194;2022-09-09T06:39:03;10.90;;;10.00;;
5951;SDS011;3001;42.622;23.194;2022-09-09T06:41:31;10.37;;;9.77;;
5951;SDS011;3001;42.622;23.194;2022-09-09T06:43:59;12.03;;;10.97;;
5951;SDS011;3001;42.622;23.194;2022-09-09T06:46:27;11.07;;;10.07;;
5951;SDS011;3001;42.622;23.194;2022-09-09T06:48:56;11.57;;;10.27;;
5951;SDS011;3001;42.622;23.194;2022-09-09T06:51:24;10.77;;;9.97;;
5951;SDS011;3001;42.622;23.194;2022-09-09T06:53:53;10.33;;;9.33;;
5951;SDS011;3001;42.622;23.194;2022-09-09T06:56:21;10.20;;;9.60;;
5951;SDS011;3001;42.622;23.194;2022-09-09T06:58:49;11.67;;;10.43;;
5951;SDS011;3001;42.622;23.194;2022-09-09T07:01:17;9.90;;;9.20;;
5951;SDS011;3001;42.622;23.194;2022-09-09T07:03:47;10.67;;;9.90;;
5951;SDS011;3001;42.622;23.194;2022-09-09T07:06:16;10.73;;;9.63;;
5951;SDS011;3001;42.622;23.194;2022-09-09T07:08:47;11.50;;;9.87;;
5951;SDS011;3001;42.622;23.194;2022-09-09T07:11:16;9.97;;;8.73;;
5951;SDS011;3001;42.622;23.194;2022-09-09T07:13:43;10.30;;;9.23;;
5951;SDS011;3001;42.622;23.194;2022-09-09T07:16:10;9.63;;;8.97;;
5951;SDS011;3001;42.622;23.194;2022-09-09T07:18:38;9.70;;;9.10;;
5951;SDS011;3001;42.622;23.194;2022-09-09T07:21:09;9.37;;;8.73;;
5951;SDS011;3001;42.622;23.194;2022-09-09T07:23:37;9.57;;;8.77;;
5951;SDS011;3001;42.622;23.194;2022-09-09T07:26:06;9.57;;;8.70;;
5951;SDS011;3001;42.622;23.194;2022-09-09T07:28:34;9.17;;;8.50;;
5951;SDS011;3001;42.622;23.194;2022-09-09T07:31:02;9.43;;;8.73;;
5951;SDS011;3001;42.622;23.194;2022-09-09T07:33:29;9.03;;;8.23;;
5951;SDS011;3001;42.622;23.194;2022-09-09T07:36:01;9.13;;;8.33;;
5951;SDS011;3001;42.622;23.194;2022-09-09T07:38:31;8.27;;;7.67;;
5951;SDS011;3001;42.622;23.194;2022-09-09T07:41:03;9.23;;;8.33;;
5951;SDS011;3001;42.622;23.194;2022-09-09T07:43:32;9.27;;;8.50;;
5951;SDS011;3001;42.622;23.194;2022-09-09T07:45:59;12.83;;;7.70;;
5951;SDS011;3001;42.622;23.194;2022-09-09T07:48:27;9.03;;;8.33;;
5951;SDS011;3001;42.622;23.194;2022-09-09T07:51:02;10.57;;;8.67;;
5951;SDS011;3001;42.622;23.194;2022-09-09T07:53:32;10.73;;;8.30;;
5951;SDS011;3001;42.622;23.194;2022-09-09T07:56:03;11.77;;;8.20;;
5951;SDS011;3001;42.622;23.194;2022-09-09T07:58:31;8.70;;;7.70;;
5951;SDS011;3001;42.622;23.194;2022-09-09T08:00:58;9.00;;;8.23;;
5951;SDS011;3001;42.622;23.194;2022-09-09T08:03:24;8.40;;;7.60;;
5951;SDS011;3001;42.622;23.194;2022-09-09T08:05:51;8.17;;;7.67;;
5951;SDS011;3001;42.622;23.194;2022-09-09T08:08:18;8.10;;;7.43;;
5951;SDS011;3001;42.622;23.194;2022-09-09T08:10:46;7.97;;;7.37;;
5951;SDS011;3001;42.622;23.194;2022-09-09T08:13:13;9.30;;;7.20;;
5951;SDS011;3001;42.622;23.194;2022-09-09T08:15:40;8.27;;;7.40;;
5951;SDS011;3001;42.622;23.194;2022-09-09T08:18:08;8.40;;;6.87;;
5951;SDS011;3001;42.622;23.194;2022-09-09T08:20:35;6.80;;;6.40;;
5951;SDS011;3001;42.622;23.194;2022-09-09T08:23:03;7.00;;;6.50;;
5951;SDS011;3001;42.622;23.194;2022-09-09T08:25:31;7.27;;;6.67;;
5951;SDS011;3001;42.622;23.194;2022-09-09T08:28:01;9.40;;;7.43;;
5951;SDS011;3001;42.622;23.194;2022-09-09T08:30:28;7.07;;;6.67;;
5951;SDS011;3001;42.622;23.194;2022-09-09T08:32:55;7.10;;;6.70;;
5951;SDS011;3001;42.622;23.194;2022-09-09T08:35:22;7.90;;;7.50;;
5951;SDS011;3001;42.622;23.194;2022-09-09T08:37:48;7.40;;;7.00;;
5951;SDS011;3001;42.622;23.194;2022-09-09T08:40:21;7.47;;;6.97;;
5951;SDS011;3001;42.622;23.194;2022-09-09T08:42:52;7.50;;;7.00;;
5951;SDS011;3001;42.622;23.194;2022-09-09T08:45:30;7.67;;;7.07;;
5951;SDS011;3001;42.622;23.194;2022-09-09T08:48:06;11.83;;;7.33;;
5951;SDS011;3001;42.622;23.194;2022-09-09T08:50:38;7.60;;;6.90;;
5951;SDS011;3001;42.622;23.194;2022-09-09T08:53:09;6.90;;;6.50;;
5951;SDS011;3001;42.622;23.194;2022-09-09T08:55:42;8.17;;;7.67;;
5951;SDS011;3001;42.622;23.194;2022-09-09T08:58:14;7.90;;;7.20;;
5951;SDS011;3001;42.622;23.194;2022-09-09T09:00:54;8.03;;;7.60;;
5951;SDS011;3001;42.622;23.194;2022-09-09T09:03:32;8.10;;;7.60;;
5951;SDS011;3001;42.622;23.194;2022-09-09T09:06:16;8.73;;;7.93;;
5951;SDS011;3001;42.622;23.194;2022-09-09T09:08:56;8.27;;;7.53;;
5951;SDS011;3001;42.622;23.194;2022-09-09T09:11:33;7.40;;;6.87;;
5951;SDS011;3001;42.622;23.194;2022-09-09T09:14:02;7.50;;;7.10;;
5951;SDS011;3001;42.622;23.194;2022-09-09T09:16:35;8.77;;;8.03;;
5951;SDS011;3001;42.622;23.194;2022-09-09T09:19:10;8.40;;;7.80;;
5951;SDS011;3001;42.622;23.194;2022-09-09T09:21:41;8.90;;;8.20;;
5951;SDS011;3001;42.622;23.194;2022-09-09T09:24:12;9.37;;;8.77;;
5951;SDS011;3001;42.622;23.194;2022-09-09T09:26:44;9.47;;;8.57;;
5951;SDS011;3001;42.622;23.194;2022-09-09T09:29:12;10.17;;;9.37;;
5951;SDS011;3001;42.622;23.194;2022-09-09T09:31:43;12.27;;;7.80;;
5951;SDS011;3001;42.622;23.194;2022-09-09T09:34:13;9.23;;;8.43;;
5951;SDS011;3001;42.622;23.194;2022-09-09T09:36:40;8.87;;;8.03;;
5951;SDS011;3001;42.622;23.194;2022-09-09T09:39:21;8.73;;;8.03;;
5951;SDS011;3001;42.622;23.194;2022-09-09T09:41:49;8.83;;;8.13;;
5951;SDS011;3001;42.622;23.194;2022-09-09T09:44:24;9.07;;;8.23;;
5951;SDS011;3001;42.622;23.194;2022-09-09T09:47:04;9.18;;;8.02;;
5951;SDS011;3001;42.622;23.194;2022-09-09T09:49:32;8.47;;;7.97;;
5951;SDS011;3001;42.622;23.194;2022-09-09T09:52:00;13.63;;;8.43;;
5951;SDS011;3001;42.622;23.194;2022-09-09T09:54:27;9.00;;;8.20;;
5951;SDS011;3001;42.622;23.194;2022-09-09T09:56:55;9.27;;;8.47;;
5951;SDS011;3001;42.622;23.194;2022-09-09T09:59:33;8.60;;;7.83;;
5951;SDS011;3001;42.622;23.194;2022-09-09T10:02:18;13.50;;;8.80;;
5951;SDS011;3001;42.622;23.194;2022-09-09T10:04:59;8.70;;;8.00;;
5951;SDS011;3001;42.622;23.194;2022-09-09T10:07:27;9.47;;;8.60;;
5951;SDS011;3001;42.622;23.194;2022-09-09T10:09:55;9.83;;;7.83;;
5951;SDS011;3001;42.622;23.194;2022-09-09T10:12:26;8.40;;;7.60;;
5951;SDS011;3001;42.622;23.194;2022-09-09T10:15:06;7.77;;;7.37;;
5951;SDS011;3001;42.622;23.194;2022-09-09T10:17:48;9.27;;;8.33;;
5951;SDS011;3001;42.622;23.194;2022-09-09T10:20:29;9.33;;;8.67;;
5951;SDS011;3001;42.622;23.194;2022-09-09T10:23:06;11.80;;;9.40;;
5951;SDS011;3001;42.622;23.194;2022-09-09T10:25:48;9.73;;;8.83;;
5951;SDS011;3001;42.622;23.194;2022-09-09T10:28:42;14.33;;;9.10;;
5951;SDS011;3001;42.622;23.194;2022-09-09T10:31:34;10.47;;;9.03;;
5951;SDS011;3001;42.622;23.194;2022-09-09T10:34:18;10.73;;;9.10;;
5951;SDS011;3001;42.622;23.194;2022-09-09T10:36:56;10.17;;;9.07;;
5951;SDS011;3001;42.622;23.194;2022-09-09T10:39:28;9.53;;;8.70;;
5951;SDS011;3001;42.622;23.194;2022-09-09T10:42:03;12.07;;;9.00;;
5951;SDS011;3001;42.622;23.194;2022-09-09T10:44:39;16.80;;;8.87;;
5951;SDS011;3001;42.622;23.194;2022-09-09T10:47:23;10.27;;;9.33;;
5951;SDS011;3001;42.622;23.194;2022-09-09T10:50:12;11.50;;;10.17;;
5951;SDS011;3001;42.622;23.194;2022-09-09T10:52:55;11.83;;;10.57;;
5951;SDS011;3001;42.622;23.194;2022-09-09T10:55:32;15.23;;;9.73;;
5951;SDS011;3001;42.622;23.194;2022-09-09T10:58:05;9.77;;;8.97;;
5951;SDS011;3001;42.622;23.194;2022-09-09T11:00:38;10.43;;;9.43;;
5951;SDS011;3001;42.622;23.194;2022-09-09T11:03:11;9.53;;;9.03;;
5951;SDS011;3001;42.622;23.194;2022-09-09T11:05:47;9.87;;;9.17;;
5951;SDS011;3001;42.622;23.194;2022-09-09T11:08:18;11.47;;;9.03;;
5951;SDS011;3001;42.622;23.194;2022-09-09T11:10:48;12.03;;;10.00;;
5951;SDS011;3001;42.622;23.194;2022-09-09T11:13:22;9.73;;;8.63;;
5951;SDS011;3001;42.622;23.194;2022-09-09T11:15:54;9.77;;;8.80;;
5951;SDS011;3001;42.622;23.194;2022-09-09T11:18:35;10.33;;;9.33;;
5951;SDS011;3001;42.622;23.194;2022-09-09T11:21:08;12.17;;;9.30;;
5951;SDS011;3001;42.622;23.194;2022-09-09T11:23:43;13.83;;;9.63;;
5951;SDS011;3001;42.622;23.194;2022-09-09T11:26:16;10.40;;;9.30;;
5951;SDS011;3001;42.622;23.194;2022-09-09T11:28:53;10.17;;;9.20;;
5951;SDS011;3001;42.622;23.194;2022-09-09T11:31:39;10.03;;;9.23;;
5951;SDS011;3001;42.622;23.194;2022-09-09T11:34:17;9.33;;;8.63;;
5951;SDS011;3001;42.622;23.194;2022-09-09T11:36:58;9.93;;;9.17;;
5951;SDS011;3001;42.622;23.194;2022-09-09T11:39:47;10.33;;;9.27;;
5951;SDS011;3001;42.622;23.194;2022-09-09T11:42:23;10.37;;;9.43;;
5951;SDS011;3001;42.622;23.194;2022-09-09T11:44:50;10.47;;;9.67;;
5951;SDS011;3001;42.622;23.194;2022-09-09T11:47:22;10.57;;;9.30;;
5951;SDS011;3001;42.622;23.194;2022-09-09T11:49:54;10.47;;;9.47;;
5951;SDS011;3001;42.622;23.194;2022-09-09T11:52:24;10.13;;;9.17;;
5951;SDS011;3001;42.622;23.194;2022-09-09T11:55:08;11.03;;;10.00;;
5951;SDS011;3001;42.622;23.194;2022-09-09T11:57:37;9.40;;;8.40;;
5951;SDS011;3001;42.622;23.194;2022-09-09T12:00:05;9.60;;;8.82;;
5951;SDS011;3001;42.622;23.194;2022-09-09T12:02:34;9.82;;;8.75;;
5951;SDS011;3001;42.622;23.194;2022-09-09T12:05:02;8.83;;;8.00;;
5951;SDS011;3001;42.622;23.194;2022-09-09T12:07:35;8.80;;;8.17;;
5951;SDS011;3001;42.622;23.194;2022-09-09T12:10:17;8.40;;;7.93;;
5951;SDS011;3001;42.622;23.194;2022-09-09T12:12:48;10.05;;;7.95;;
5951;SDS011;3001;42.622;23.194;2022-09-09T12:15:19;8.27;;;7.37;;
5951;SDS011;3001;42.622;23.194;2022-09-09T12:17:53;8.37;;;7.33;;
5951;SDS011;3001;42.622;23.194;2022-09-09T12:20:22;7.88;;;6.85;;
5951;SDS011;3001;42.622;23.194;2022-09-09T12:25:48;7.90;;;7.17;;
5951;SDS011;3001;42.622;23.194;2022-09-09T12:28:25;6.80;;;6.38;;
5951;SDS011;3001;42.622;23.194;2022-09-09T12:31:01;6.53;;;6.03;;
5951;SDS011;3001;42.622;23.194;2022-09-09T12:33:34;8.50;;;6.27;;
5951;SDS011;3001;42.622;23.194;2022-09-09T12:36:02;11.20;;;6.43;;
5951;SDS011;3001;42.622;23.194;2022-09-09T12:38:32;7.60;;;6.93;;
5951;SDS011;3001;42.622;23.194;2022-09-09T12:41:01;8.30;;;6.30;;
5951;SDS011;3001;42.622;23.194;2022-09-09T12:43:29;7.20;;;6.47;;
5951;SDS011;3001;42.622;23.194;2022-09-09T12:45:56;12.57;;;7.77;;
5951;SDS011;3001;42.622;23.194;2022-09-09T12:48:31;11.17;;;5.97;;
5951;SDS011;3001;42.622;23.194;2022-09-09T12:51:01;6.93;;;6.20;;
5951;SDS011;3001;42.622;23.194;2022-09-09T12:53:31;6.63;;;6.00;;
5951;SDS011;3001;42.622;23.194;2022-09-09T12:56:06;7.87;;;6.73;;
5951;SDS011;3001;42.622;23.194;2022-09-09T12:58:35;14.27;;;9.83;;
5951;SDS011;3001;42.622;23.194;2022-09-09T13:01:03;8.47;;;7.00;;
5951;SDS011;3001;42.622;23.194;2022-09-09T13:03:32;7.53;;;6.80;;
5951;SDS011;3001;42.622;23.194;2022-09-09T13:06:10;13.17;;;6.67;;
5951;SDS011;3001;42.622;23.194;2022-09-09T13:08:40;7.47;;;6.70;;
5951;SDS011;3001;42.622;23.194;2022-09-09T13:11:09;9.97;;;6.53;;
5951;SDS011;3001;42.622;23.194;2022-09-09T13:13:41;12.33;;;6.80;;
5951;SDS011;3001;42.622;23.194;2022-09-09T13:16:18;8.60;;;7.70;;
5951;SDS011;3001;42.622;23.194;2022-09-09T13:18:48;7.63;;;6.93;;
5951;SDS011;3001;42.622;23.194;2022-09-09T13:21:15;7.13;;;6.47;;
5951;SDS011;3001;42.622;23.194;2022-09-09T13:23:48;7.10;;;6.63;;
5951;SDS011;3001;42.622;23.194;2022-09-09T13:26:22;9.27;;;8.37;;
5951;SDS011;3001;42.622;23.194;2022-09-09T13:28:51;16.50;;;12.03;;
5951;SDS011;3001;42.622;23.194;2022-09-09T13:31:23;8.93;;;8.20;;
5951;SDS011;3001;42.622;23.194;2022-09-09T13:33:52;9.23;;;7.15;;
5951;SDS011;3001;42.622;23.194;2022-09-09T13:36:27;6.87;;;6.37;;
5951;SDS011;3001;42.622;23.194;2022-09-09T13:38:57;7.30;;;6.82;;
5951;SDS011;3001;42.622;23.194;2022-09-09T13:41:34;12.07;;;7.43;;
5951;SDS011;3001;42.622;23.194;2022-09-09T13:44:02;7.93;;;7.03;;
5951;SDS011;3001;42.622;23.194;2022-09-09T13:46:32;7.07;;;6.47;;
5951;SDS011;3001;42.622;23.194;2022-09-09T13:49:02;7.10;;;6.50;;
5951;SDS011;3001;42.622;23.194;2022-09-09T13:51:44;7.53;;;7.07;;
5951;SDS011;3001;42.622;23.194;2022-09-09T13:54:15;7.75;;;7.25;;
5951;SDS011;3001;42.622;23.194;2022-09-09T13:56:44;7.93;;;7.10;;
5951;SDS011;3001;42.622;23.194;2022-09-09T13:59:12;9.10;;;7.37;;
5951;SDS011;3001;42.622;23.194;2022-09-09T14:01:39;11.18;;;6.38;;
5951;SDS011;3001;42.622;23.194;2022-09-09T14:04:07;7.15;;;6.60;;
5951;SDS011;3001;42.622;23.194;2022-09-09T14:06:34;7.20;;;6.73;;
5951;SDS011;3001;42.622;23.194;2022-09-09T14:09:04;6.63;;;6.13;;
5951;SDS011;3001;42.622;23.194;2022-09-09T14:11:32;7.55;;;7.00;;
5951;SDS011;3001;42.622;23.194;2022-09-09T14:13:59;10.25;;;9.45;;
5951;SDS011;3001;42.622;23.194;2022-09-09T14:16:26;7.57;;;6.82;;
5951;SDS011;3001;42.622;23.194;2022-09-09T14:18:54;7.40;;;6.68;;
5951;SDS011;3001;42.622;23.194;2022-09-09T14:21:21;7.47;;;6.72;;
5951;SDS011;3001;42.622;23.194;2022-09-09T14:23:48;6.38;;;5.82;;
5951;SDS011;3001;42.622;23.194;2022-09-09T14:26:15;7.22;;;6.63;;
5951;SDS011;3001;42.622;23.194;2022-09-09T14:28:45;6.20;;;5.68;;
5951;SDS011;3001;42.622;23.194;2022-09-09T14:31:12;6.18;;;5.65;;
5951;SDS011;3001;42.622;23.194;2022-09-09T14:33:39;6.55;;;5.90;;
5951;SDS011;3001;42.622;23.194;2022-09-09T14:36:06;5.43;;;5.00;;
5951;SDS011;3001;42.622;23.194;2022-09-09T14:38:34;6.60;;;5.97;;
5951;SDS011;3001;42.622;23.194;2022-09-09T14:41:04;11.73;;;5.85;;
5951;SDS011;3001;42.622;23.194;2022-09-09T14:43:31;7.63;;;6.28;;
5951;SDS011;3001;42.622;23.194;2022-09-09T14:46:05;6.77;;;5.60;;
5951;SDS011;3001;42.622;23.194;2022-09-09T14:48:32;16.87;;;5.60;;
5951;SDS011;3001;42.622;23.194;2022-09-09T14:51:04;6.77;;;5.67;;
5951;SDS011;3001;42.622;23.194;2022-09-09T14:53:32;5.80;;;5.30;;
5951;SDS011;3001;42.622;23.194;2022-09-09T14:56:03;5.72;;;5.32;;
5951;SDS011;3001;42.622;23.194;2022-09-09T14:58:31;6.00;;;5.50;;
5951;SDS011;3001;42.622;23.194;2022-09-09T15:01:01;6.13;;;5.60;;
5951;SDS011;3001;42.622;23.194;2022-09-09T15:03:35;11.60;;;6.00;;
5951;SDS011;3001;42.622;23.194;2022-09-09T15:06:05;8.17;;;6.17;;
5951;SDS011;3001;42.622;23.194;2022-09-09T15:08:33;6.53;;;5.87;;
5951;SDS011;3001;42.622;23.194;2022-09-09T15:11:00;5.90;;;5.50;;
5951;SDS011;3001;42.622;23.194;2022-09-09T15:13:27;6.30;;;5.70;;
5951;SDS011;3001;42.622;23.194;2022-09-09T15:15:54;7.13;;;6.43;;
5951;SDS011;3001;42.622;23.194;2022-09-09T15:18:23;7.60;;;6.53;;